sensor_id;sensor_type;location;lat;lon;timestamp;temperature;humidity
43949;DHT22;29429;51.074;13.764;2022-07-10T00:00:52;13.80;99.90
43949;DHT22;29429;51.074;13.764;2022-07-10T00:03:20;13.70;99.90
43949;DHT22;29429;51.074;13.764;2022-07-10T00:05:47;13.60;99.90
43949;DHT22;29429;51.074;13.764;2022-07-10T00:08:16;13.50;99.90
43949;DHT22;29429;51.074;13.764;2022-07-10T00:10:43;13.40;99.90
43949;DHT22;29429;51.074;13.764;2022-07-10T00:13:10;13.30;99.90
43949;DHT22;29429;51.074;13.764;2022-07-10T00:15:37;13.20;99.90
43949;DHT22;29429;51.074;13.764;2022-07-10T00:18:03;13.20;99.90
43949;DHT22;29429;51.074;13.764;2022-07-10T00:20:31;13.30;99.90
43949;DHT22;29429;51.074;13.764;2022-07-10T00:22:58;13.10;99.90
43949;DHT22;29429;51.074;13.764;2022-07-10T00:25:27;13.10;99.90
43949;DHT22;29429;51.074;13.764;2022-07-10T00:27:55;13.00;99.90
43949;DHT22;29429;51.074;13.764;2022-07-10T00:30:22;12.90;99.90
43949;DHT22;29429;51.074;13.764;2022-07-10T00:32:50;12.90;99.90
43949;DHT22;29429;51.074;13.764;2022-07-10T00:35:16;12.80;99.90
43949;DHT22;29429;51.074;13.764;2022-07-10T00:37:43;12.80;99.90
43949;DHT22;29429;51.074;13.764;2022-07-10T00:40:10;12.80;99.90
43949;DHT22;29429;51.074;13.764;2022-07-10T00:42:38;12.80;99.90
43949;DHT22;29429;51.074;13.764;2022-07-10T00:45:06;12.80;99.90
43949;DHT22;29429;51.074;13.764;2022-07-10T00:47:33;12.80;99.90
43949;DHT22;29429;51.074;13.764;2022-07-10T00:50:00;12.80;99.90
43949;DHT22;29429;51.074;13.764;2022-07-10T00:52:27;12.80;99.90
43949;DHT22;29429;51.074;13.764;2022-07-10T00:54:54;12.80;99.90
43949;DHT22;29429;51.074;13.764;2022-07-10T00:57:22;12.90;99.90
43949;DHT22;29429;51.074;13.764;2022-07-10T00:59:49;12.90;99.90
43949;DHT22;29429;51.074;13.764;2022-07-10T01:02:17;12.90;99.90
43949;DHT22;29429;51.074;13.764;2022-07-10T01:04:44;12.80;99.90
43949;DHT22;29429;51.074;13.764;2022-07-10T01:07:11;12.90;99.90
43949;DHT22;29429;51.074;13.764;2022-07-10T01:09:38;13.00;99.90
43949;DHT22;29429;51.074;13.764;2022-07-10T01:12:06;12.90;99.90
43949;DHT22;29429;51.074;13.764;2022-07-10T01:14:33;12.90;99.90
43949;DHT22;29429;51.074;13.764;2022-07-10T01:17:03;12.90;99.90
43949;DHT22;29429;51.074;13.764;2022-07-10T01:19:31;12.90;99.90
43949;DHT22;29429;51.074;13.764;2022-07-10T01:21:58;12.90;99.90
43949;DHT22;29429;51.074;13.764;2022-07-10T01:24:25;13.00;99.90
43949;DHT22;29429;51.074;13.764;2022-07-10T01:26:52;13.00;99.90
43949;DHT22;29429;51.074;13.764;2022-07-10T01:29:20;13.00;99.90
43949;DHT22;29429;51.074;13.764;2022-07-10T01:31:48;13.00;99.90
43949;DHT22;29429;51.074;13.764;2022-07-10T01:34:22;13.00;99.90
43949;DHT22;29429;51.074;13.764;2022-07-10T01:36:49;13.00;99.90
43949;DHT22;29429;51.074;13.764;2022-07-10T01:39:16;13.00;99.90
43949;DHT22;29429;51.074;13.764;2022-07-10T01:41:43;13.10;99.90
43949;DHT22;29429;51.074;13.764;2022-07-10T01:44:10;13.00;99.90
43949;DHT22;29429;51.074;13.764;2022-07-10T01:46:46;13.00;99.90
43949;DHT22;29429;51.074;13.764;2022-07-10T01:49:15;13.00;99.90
43949;DHT22;29429;51.074;13.764;2022-07-10T01:51:42;13.10;99.90
43949;DHT22;29429;51.074;13.764;2022-07-10T01:54:10;13.10;99.90
43949;DHT22;29429;51.074;13.764;2022-07-10T01:56:37;13.00;99.90
43949;DHT22;29429;51.074;13.764;2022-07-10T01:59:05;13.10;99.90
43949;DHT22;29429;51.074;13.764;2022-07-10T02:01:32;13.20;99.90
43949;DHT22;29429;51.074;13.764;2022-07-10T02:04:00;13.20;99.90
43949;DHT22;29429;51.074;13.764;2022-07-10T02:06:45;13.30;99.90
43949;DHT22;29429;51.074;13.764;2022-07-10T02:09:12;13.20;99.90
43949;DHT22;29429;51.074;13.764;2022-07-10T02:11:39;13.20;99.90
43949;DHT22;29429;51.074;13.764;2022-07-10T02:14:06;13.20;99.90
43949;DHT22;29429;51.074;13.764;2022-07-10T02:16:34;13.20;99.90
43949;DHT22;29429;51.074;13.764;2022-07-10T02:19:02;13.20;99.90
43949;DHT22;29429;51.074;13.764;2022-07-10T02:21:30;13.20;99.90
43949;DHT22;29429;51.074;13.764;2022-07-10T02:23:56;13.20;99.90
43949;DHT22;29429;51.074;13.764;2022-07-10T02:26:23;13.30;99.90
43949;DHT22;29429;51.074;13.764;2022-07-10T02:28:50;13.20;99.90
43949;DHT22;29429;51.074;13.764;2022-07-10T02:31:17;13.30;99.90
43949;DHT22;29429;51.074;13.764;2022-07-10T02:33:44;13.30;99.90
43949;DHT22;29429;51.074;13.764;2022-07-10T02:36:11;13.30;99.90
43949;DHT22;29429;51.074;13.764;2022-07-10T02:38:38;13.40;99.90
43949;DHT22;29429;51.074;13.764;2022-07-10T02:41:05;13.30;99.90
43949;DHT22;29429;51.074;13.764;2022-07-10T02:43:32;13.30;99.90
43949;DHT22;29429;51.074;13.764;2022-07-10T02:46:00;13.30;99.90
43949;DHT22;29429;51.074;13.764;2022-07-10T02:48:28;13.40;99.90
43949;DHT22;29429;51.074;13.764;2022-07-10T02:50:55;13.50;99.90
43949;DHT22;29429;51.074;13.764;2022-07-10T02:53:22;13.40;99.90
43949;DHT22;29429;51.074;13.764;2022-07-10T02:55:49;13.40;99.90
43949;DHT22;29429;51.074;13.764;2022-07-10T02:58:16;13.40;99.90
43949;DHT22;29429;51.074;13.764;2022-07-10T03:00:44;13.40;99.90
43949;DHT22;29429;51.074;13.764;2022-07-10T03:03:11;13.50;99.90
43949;DHT22;29429;51.074;13.764;2022-07-10T03:05:38;13.40;99.90
43949;DHT22;29429;51.074;13.764;2022-07-10T03:08:05;13.30;99.90
43949;DHT22;29429;51.074;13.764;2022-07-10T03:10:32;13.40;99.90
43949;DHT22;29429;51.074;13.764;2022-07-10T03:12:59;13.30;99.90
43949;DHT22;29429;51.074;13.764;2022-07-10T03:15:26;13.40;99.90
43949;DHT22;29429;51.074;13.764;2022-07-10T03:17:53;13.40;99.90
43949;DHT22;29429;51.074;13.764;2022-07-10T03:20:20;13.40;99.90
43949;DHT22;29429;51.074;13.764;2022-07-10T03:22:47;13.30;99.90
43949;DHT22;29429;51.074;13.764;2022-07-10T03:25:14;13.50;99.90
43949;DHT22;29429;51.074;13.764;2022-07-10T03:27:41;13.60;99.90
43949;DHT22;29429;51.074;13.764;2022-07-10T03:30:08;13.60;99.90
43949;DHT22;29429;51.074;13.764;2022-07-10T03:32:36;13.50;99.90
43949;DHT22;29429;51.074;13.764;2022-07-10T03:35:04;13.70;99.90
43949;DHT22;29429;51.074;13.764;2022-07-10T03:37:31;13.60;99.90
43949;DHT22;29429;51.074;13.764;2022-07-10T03:39:58;13.50;99.90
43949;DHT22;29429;51.074;13.764;2022-07-10T03:42:25;13.60;99.90
43949;DHT22;29429;51.074;13.764;2022-07-10T03:44:52;13.50;99.90
43949;DHT22;29429;51.074;13.764;2022-07-10T03:47:19;13.50;99.90
43949;DHT22;29429;51.074;13.764;2022-07-10T03:49:45;13.60;99.90
43949;DHT22;29429;51.074;13.764;2022-07-10T03:52:12;13.60;99.90
43949;DHT22;29429;51.074;13.764;2022-07-10T03:54:39;13.60;99.90
43949;DHT22;29429;51.074;13.764;2022-07-10T03:57:06;13.60;99.90
43949;DHT22;29429;51.074;13.764;2022-07-10T03:59:52;13.60;99.90
43949;DHT22;29429;51.074;13.764;2022-07-10T04:02:19;13.60;99.90
43949;DHT22;29429;51.074;13.764;2022-07-10T04:04:45;13.60;99.90
43949;DHT22;29429;51.074;13.764;2022-07-10T04:07:13;13.60;99.90
43949;DHT22;29429;51.074;13.764;2022-07-10T04:09:39;13.60;99.90
43949;DHT22;29429;51.074;13.764;2022-07-10T04:12:07;13.80;99.90
43949;DHT22;29429;51.074;13.764;2022-07-10T04:14:34;13.70;99.90
43949;DHT22;29429;51.074;13.764;2022-07-10T04:17:01;13.70;99.90
43949;DHT22;29429;51.074;13.764;2022-07-10T04:19:28;13.70;99.90
43949;DHT22;29429;51.074;13.764;2022-07-10T04:21:55;13.80;99.90
43949;DHT22;29429;51.074;13.764;2022-07-10T04:24:22;13.80;99.90
43949;DHT22;29429;51.074;13.764;2022-07-10T04:26:49;13.80;99.90
43949;DHT22;29429;51.074;13.764;2022-07-10T04:29:16;13.90;99.90
43949;DHT22;29429;51.074;13.764;2022-07-10T04:31:43;14.00;99.90
43949;DHT22;29429;51.074;13.764;2022-07-10T04:34:10;14.00;99.90
43949;DHT22;29429;51.074;13.764;2022-07-10T04:36:37;14.10;99.90
43949;DHT22;29429;51.074;13.764;2022-07-10T04:39:04;14.20;99.90
43949;DHT22;29429;51.074;13.764;2022-07-10T04:41:31;14.20;99.90
43949;DHT22;29429;51.074;13.764;2022-07-10T04:43:58;14.30;99.90
43949;DHT22;29429;51.074;13.764;2022-07-10T04:46:24;14.40;99.90
43949;DHT22;29429;51.074;13.764;2022-07-10T04:48:51;14.40;99.90
43949;DHT22;29429;51.074;13.764;2022-07-10T04:51:18;14.50;99.90
43949;DHT22;29429;51.074;13.764;2022-07-10T04:53:45;14.60;99.90
43949;DHT22;29429;51.074;13.764;2022-07-10T04:56:12;14.60;99.90
43949;DHT22;29429;51.074;13.764;2022-07-10T04:58:39;14.60;99.90
43949;DHT22;29429;51.074;13.764;2022-07-10T05:01:07;14.60;99.90
43949;DHT22;29429;51.074;13.764;2022-07-10T05:03:34;14.60;99.90
43949;DHT22;29429;51.074;13.764;2022-07-10T05:06:01;14.60;99.90
43949;DHT22;29429;51.074;13.764;2022-07-10T05:08:27;14.60;99.90
43949;DHT22;29429;51.074;13.764;2022-07-10T05:10:54;14.70;99.90
43949;DHT22;29429;51.074;13.764;2022-07-10T05:13:21;14.70;99.90
43949;DHT22;29429;51.074;13.764;2022-07-10T05:15:48;14.80;99.90
43949;DHT22;29429;51.074;13.764;2022-07-10T05:18:16;14.80;99.90
43949;DHT22;29429;51.074;13.764;2022-07-10T05:20:44;14.80;99.90
43949;DHT22;29429;51.074;13.764;2022-07-10T05:23:14;14.80;99.90
43949;DHT22;29429;51.074;13.764;2022-07-10T05:25:42;14.80;99.90
43949;DHT22;29429;51.074;13.764;2022-07-10T05:28:09;15.00;99.90
43949;DHT22;29429;51.074;13.764;2022-07-10T05:30:36;14.90;99.90
43949;DHT22;29429;51.074;13.764;2022-07-10T05:33:03;14.90;99.90
43949;DHT22;29429;51.074;13.764;2022-07-10T05:35:30;14.90;99.90
43949;DHT22;29429;51.074;13.764;2022-07-10T05:37:57;14.90;99.90
43949;DHT22;29429;51.074;13.764;2022-07-10T05:40:24;14.90;99.90
43949;DHT22;29429;51.074;13.764;2022-07-10T05:42:51;14.90;99.90
43949;DHT22;29429;51.074;13.764;2022-07-10T05:45:18;14.90;99.90
43949;DHT22;29429;51.074;13.764;2022-07-10T05:47:45;14.90;99.90
43949;DHT22;29429;51.074;13.764;2022-07-10T05:50:12;14.90;99.90
43949;DHT22;29429;51.074;13.764;2022-07-10T05:52:39;14.80;99.90
43949;DHT22;29429;51.074;13.764;2022-07-10T05:55:07;14.70;99.90
43949;DHT22;29429;51.074;13.764;2022-07-10T05:57:35;14.90;99.90
43949;DHT22;29429;51.074;13.764;2022-07-10T06:00:06;14.90;99.90
43949;DHT22;29429;51.074;13.764;2022-07-10T06:02:40;15.00;99.90
43949;DHT22;29429;51.074;13.764;2022-07-10T06:05:08;15.10;99.90
43949;DHT22;29429;51.074;13.764;2022-07-10T06:07:35;15.20;99.90
43949;DHT22;29429;51.074;13.764;2022-07-10T06:10:04;15.20;99.90
43949;DHT22;29429;51.074;13.764;2022-07-10T06:12:32;15.30;99.90
43949;DHT22;29429;51.074;13.764;2022-07-10T06:14:59;15.20;99.90
43949;DHT22;29429;51.074;13.764;2022-07-10T06:17:26;15.50;99.90
43949;DHT22;29429;51.074;13.764;2022-07-10T06:19:52;15.60;99.90
43949;DHT22;29429;51.074;13.764;2022-07-10T06:22:21;15.70;99.90
43949;DHT22;29429;51.074;13.764;2022-07-10T06:24:58;15.80;99.90
43949;DHT22;29429;51.074;13.764;2022-07-10T06:27:35;15.80;99.90
43949;DHT22;29429;51.074;13.764;2022-07-10T06:30:02;15.70;99.90
43949;DHT22;29429;51.074;13.764;2022-07-10T06:32:30;15.70;99.90
43949;DHT22;29429;51.074;13.764;2022-07-10T06:34:57;15.70;99.90
43949;DHT22;29429;51.074;13.764;2022-07-10T06:37:23;15.70;99.90
43949;DHT22;29429;51.074;13.764;2022-07-10T06:39:51;15.80;99.90
43949;DHT22;29429;51.074;13.764;2022-07-10T06:42:18;15.90;99.90
43949;DHT22;29429;51.074;13.764;2022-07-10T06:44:50;16.00;99.90
43949;DHT22;29429;51.074;13.764;2022-07-10T06:47:18;16.10;99.90
43949;DHT22;29429;51.074;13.764;2022-07-10T06:50:09;16.10;99.90
43949;DHT22;29429;51.074;13.764;2022-07-10T06:52:36;16.20;99.90
43949;DHT22;29429;51.074;13.764;2022-07-10T06:55:04;16.30;99.90
43949;DHT22;29429;51.074;13.764;2022-07-10T06:57:31;16.30;99.90
43949;DHT22;29429;51.074;13.764;2022-07-10T06:59:58;16.20;99.90
43949;DHT22;29429;51.074;13.764;2022-07-10T07:02:25;16.10;99.90
43949;DHT22;29429;51.074;13.764;2022-07-10T07:04:53;16.10;99.90
43949;DHT22;29429;51.074;13.764;2022-07-10T07:07:19;16.30;99.90
43949;DHT22;29429;51.074;13.764;2022-07-10T07:09:51;16.40;99.90
43949;DHT22;29429;51.074;13.764;2022-07-10T07:12:19;16.50;99.90
43949;DHT22;29429;51.074;13.764;2022-07-10T07:14:46;16.60;99.90
43949;DHT22;29429;51.074;13.764;2022-07-10T07:17:13;16.60;99.90
43949;DHT22;29429;51.074;13.764;2022-07-10T07:19:48;16.60;99.90
43949;DHT22;29429;51.074;13.764;2022-07-10T07:22:34;16.60;99.90
43949;DHT22;29429;51.074;13.764;2022-07-10T07:25:20;16.60;99.90
43949;DHT22;29429;51.074;13.764;2022-07-10T07:27:47;16.40;99.90
43949;DHT22;29429;51.074;13.764;2022-07-10T07:30:15;16.60;99.90
43949;DHT22;29429;51.074;13.764;2022-07-10T07:32:44;16.70;99.90
43949;DHT22;29429;51.074;13.764;2022-07-10T07:35:13;16.80;99.90
43949;DHT22;29429;51.074;13.764;2022-07-10T07:37:43;16.80;99.90
43949;DHT22;29429;51.074;13.764;2022-07-10T07:40:14;16.80;99.90
43949;DHT22;29429;51.074;13.764;2022-07-10T07:42:43;16.70;99.90
43949;DHT22;29429;51.074;13.764;2022-07-10T07:45:10;16.80;99.90
43949;DHT22;29429;51.074;13.764;2022-07-10T07:47:54;17.00;99.90
43949;DHT22;29429;51.074;13.764;2022-07-10T07:50:25;17.10;99.90
43949;DHT22;29429;51.074;13.764;2022-07-10T07:52:53;17.20;99.90
43949;DHT22;29429;51.074;13.764;2022-07-10T07:55:21;17.20;99.90
43949;DHT22;29429;51.074;13.764;2022-07-10T07:57:52;17.10;99.90
43949;DHT22;29429;51.074;13.764;2022-07-10T08:00:21;17.10;99.90
43949;DHT22;29429;51.074;13.764;2022-07-10T08:02:50;17.30;99.90
43949;DHT22;29429;51.074;13.764;2022-07-10T08:05:20;17.40;99.90
43949;DHT22;29429;51.074;13.764;2022-07-10T08:07:51;17.40;99.90
43949;DHT22;29429;51.074;13.764;2022-07-10T08:10:32;17.40;99.90
43949;DHT22;29429;51.074;13.764;2022-07-10T08:12:59;17.50;99.90
43949;DHT22;29429;51.074;13.764;2022-07-10T08:15:26;17.60;99.90
43949;DHT22;29429;51.074;13.764;2022-07-10T08:17:54;17.70;99.90
43949;DHT22;29429;51.074;13.764;2022-07-10T08:20:25;17.70;99.90
43949;DHT22;29429;51.074;13.764;2022-07-10T08:22:52;17.60;99.90
43949;DHT22;29429;51.074;13.764;2022-07-10T08:25:27;17.40;99.90
43949;DHT22;29429;51.074;13.764;2022-07-10T08:28:03;17.40;99.90
43949;DHT22;29429;51.074;13.764;2022-07-10T08:30:32;17.40;99.90
43949;DHT22;29429;51.074;13.764;2022-07-10T08:33:00;17.30;99.90
43949;DHT22;29429;51.074;13.764;2022-07-10T08:35:27;17.30;99.90
43949;DHT22;29429;51.074;13.764;2022-07-10T08:37:53;17.60;99.90
43949;DHT22;29429;51.074;13.764;2022-07-10T08:40:21;17.80;99.90
43949;DHT22;29429;51.074;13.764;2022-07-10T08:42:49;17.90;98.70
43949;DHT22;29429;51.074;13.764;2022-07-10T08:45:16;17.70;98.80
43949;DHT22;29429;51.074;13.764;2022-07-10T08:47:44;17.30;99.20
43949;DHT22;29429;51.074;13.764;2022-07-10T08:50:32;17.30;99.80
43949;DHT22;29429;51.074;13.764;2022-07-10T08:53:12;17.00;99.90
43949;DHT22;29429;51.074;13.764;2022-07-10T08:55:43;16.70;99.90
43949;DHT22;29429;51.074;13.764;2022-07-10T08:58:12;16.50;99.90
43949;DHT22;29429;51.074;13.764;2022-07-10T09:00:40;16.30;99.90
43949;DHT22;29429;51.074;13.764;2022-07-10T09:03:09;15.80;99.90
43949;DHT22;29429;51.074;13.764;2022-07-10T09:05:36;15.70;99.90
43949;DHT22;29429;51.074;13.764;2022-07-10T09:08:03;15.50;99.90
43949;DHT22;29429;51.074;13.764;2022-07-10T09:10:30;15.50;99.90
43949;DHT22;29429;51.074;13.764;2022-07-10T09:13:00;15.60;99.90
43949;DHT22;29429;51.074;13.764;2022-07-10T09:15:30;15.80;99.90
43949;DHT22;29429;51.074;13.764;2022-07-10T09:18:03;16.10;99.90
43949;DHT22;29429;51.074;13.764;2022-07-10T09:20:37;16.30;99.90
43949;DHT22;29429;51.074;13.764;2022-07-10T09:23:17;16.40;99.90
43949;DHT22;29429;51.074;13.764;2022-07-10T09:25:48;16.60;99.90
43949;DHT22;29429;51.074;13.764;2022-07-10T09:28:19;16.80;99.90
43949;DHT22;29429;51.074;13.764;2022-07-10T09:30:47;17.10;99.90
43949;DHT22;29429;51.074;13.764;2022-07-10T09:33:29;17.40;99.50
43949;DHT22;29429;51.074;13.764;2022-07-10T09:36:07;17.80;98.90
43949;DHT22;29429;51.074;13.764;2022-07-10T09:41:24;18.00;96.70
43949;DHT22;29429;51.074;13.764;2022-07-10T09:43:53;17.90;97.00
43949;DHT22;29429;51.074;13.764;2022-07-10T09:46:34;17.80;97.00
43949;DHT22;29429;51.074;13.764;2022-07-10T09:49:06;17.70;96.30
43949;DHT22;29429;51.074;13.764;2022-07-10T09:51:45;17.60;96.90
43949;DHT22;29429;51.074;13.764;2022-07-10T09:54:15;17.50;97.20
43949;DHT22;29429;51.074;13.764;2022-07-10T09:56:44;17.40;96.70
43949;DHT22;29429;51.074;13.764;2022-07-10T09:59:16;17.40;97.00
43949;DHT22;29429;51.074;13.764;2022-07-10T10:01:49;17.50;97.10
43949;DHT22;29429;51.074;13.764;2022-07-10T10:04:20;17.60;95.90
43949;DHT22;29429;51.074;13.764;2022-07-10T10:07:01;17.80;95.70
43949;DHT22;29429;51.074;13.764;2022-07-10T10:09:41;18.00;94.40
43949;DHT22;29429;51.074;13.764;2022-07-10T10:12:44;18.20;94.20
43949;DHT22;29429;51.074;13.764;2022-07-10T10:15:18;18.70;93.30
43949;DHT22;29429;51.074;13.764;2022-07-10T10:17:45;18.80;92.50
43949;DHT22;29429;51.074;13.764;2022-07-10T10:20:16;18.90;91.70
43949;DHT22;29429;51.074;13.764;2022-07-10T10:23:04;19.00;90.50
43949;DHT22;29429;51.074;13.764;2022-07-10T10:25:33;19.10;88.80
43949;DHT22;29429;51.074;13.764;2022-07-10T10:28:02;19.00;86.50
43949;DHT22;29429;51.074;13.764;2022-07-10T10:30:41;18.80;87.30
43949;DHT22;29429;51.074;13.764;2022-07-10T10:36:05;18.50;89.40
43949;DHT22;29429;51.074;13.764;2022-07-10T10:46:59;18.40;90.20
43949;DHT22;29429;51.074;13.764;2022-07-10T10:49:52;18.30;90.60
43949;DHT22;29429;51.074;13.764;2022-07-10T10:52:23;18.30;90.80
43949;DHT22;29429;51.074;13.764;2022-07-10T10:57:36;18.50;91.30
43949;DHT22;29429;51.074;13.764;2022-07-10T11:00:14;18.70;91.40
43949;DHT22;29429;51.074;13.764;2022-07-10T11:02:42;19.00;90.60
43949;DHT22;29429;51.074;13.764;2022-07-10T11:07:58;19.00;88.40
43949;DHT22;29429;51.074;13.764;2022-07-10T11:13:18;18.60;87.30
43949;DHT22;29429;51.074;13.764;2022-07-10T11:15:47;18.40;88.70
43949;DHT22;29429;51.074;13.764;2022-07-10T11:18:21;18.30;88.40
43949;DHT22;29429;51.074;13.764;2022-07-10T11:20:55;18.10;89.30
43949;DHT22;29429;51.074;13.764;2022-07-10T11:24:01;18.10;90.30
43949;DHT22;29429;51.074;13.764;2022-07-10T11:26:38;18.10;91.30
43949;DHT22;29429;51.074;13.764;2022-07-10T11:29:18;18.10;90.40
43949;DHT22;29429;51.074;13.764;2022-07-10T11:31:54;18.00;90.80
43949;DHT22;29429;51.074;13.764;2022-07-10T11:34:22;18.10;90.80
43949;DHT22;29429;51.074;13.764;2022-07-10T11:36:49;18.20;90.80
43949;DHT22;29429;51.074;13.764;2022-07-10T11:39:16;18.40;90.00
43949;DHT22;29429;51.074;13.764;2022-07-10T11:41:45;18.70;89.20
43949;DHT22;29429;51.074;13.764;2022-07-10T11:44:17;19.10;86.70
43949;DHT22;29429;51.074;13.764;2022-07-10T11:46:45;19.50;85.30
43949;DHT22;29429;51.074;13.764;2022-07-10T11:49:16;19.70;85.00
43949;DHT22;29429;51.074;13.764;2022-07-10T11:51:44;19.90;84.60
43949;DHT22;29429;51.074;13.764;2022-07-10T11:54:16;20.10;82.90
43949;DHT22;29429;51.074;13.764;2022-07-10T11:56:49;20.10;80.90
43949;DHT22;29429;51.074;13.764;2022-07-10T11:59:25;20.00;82.50
43949;DHT22;29429;51.074;13.764;2022-07-10T12:01:55;19.80;81.40
43949;DHT22;29429;51.074;13.764;2022-07-10T12:04:24;19.40;83.20
43949;DHT22;29429;51.074;13.764;2022-07-10T12:06:54;19.10;84.80
43949;DHT22;29429;51.074;13.764;2022-07-10T12:09:23;18.80;85.20
43949;DHT22;29429;51.074;13.764;2022-07-10T12:12:03;18.50;86.00
43949;DHT22;29429;51.074;13.764;2022-07-10T12:14:33;18.30;85.10
43949;DHT22;29429;51.074;13.764;2022-07-10T12:17:10;18.10;86.60
43949;DHT22;29429;51.074;13.764;2022-07-10T12:19:40;17.80;87.80
43949;DHT22;29429;51.074;13.764;2022-07-10T12:22:08;17.70;89.40
43949;DHT22;29429;51.074;13.764;2022-07-10T12:24:37;17.60;88.20
43949;DHT22;29429;51.074;13.764;2022-07-10T12:27:05;17.50;89.10
43949;DHT22;29429;51.074;13.764;2022-07-10T12:29:37;17.50;89.60
43949;DHT22;29429;51.074;13.764;2022-07-10T12:32:06;17.60;89.70
43949;DHT22;29429;51.074;13.764;2022-07-10T12:34:39;17.60;89.70
43949;DHT22;29429;51.074;13.764;2022-07-10T12:37:11;17.70;89.60
43949;DHT22;29429;51.074;13.764;2022-07-10T12:39:54;17.70;90.00
43949;DHT22;29429;51.074;13.764;2022-07-10T12:42:29;17.70;89.80
43949;DHT22;29429;51.074;13.764;2022-07-10T12:45:11;17.70;90.00
43949;DHT22;29429;51.074;13.764;2022-07-10T12:47:47;17.70;90.00
43949;DHT22;29429;51.074;13.764;2022-07-10T12:50:17;17.80;90.00
43949;DHT22;29429;51.074;13.764;2022-07-10T12:52:46;18.00;89.60
43949;DHT22;29429;51.074;13.764;2022-07-10T12:55:21;18.20;87.90
43949;DHT22;29429;51.074;13.764;2022-07-10T13:00:30;18.60;85.70
43949;DHT22;29429;51.074;13.764;2022-07-10T13:03:11;18.80;86.50
43949;DHT22;29429;51.074;13.764;2022-07-10T13:05:47;19.00;87.10
43949;DHT22;29429;51.074;13.764;2022-07-10T13:08:24;19.30;86.30
43949;DHT22;29429;51.074;13.764;2022-07-10T13:10:56;19.70;85.70
43949;DHT22;29429;51.074;13.764;2022-07-10T13:13:28;19.90;81.70
43949;DHT22;29429;51.074;13.764;2022-07-10T13:15:59;19.90;80.70
43949;DHT22;29429;51.074;13.764;2022-07-10T13:18:28;20.00;79.60
43949;DHT22;29429;51.074;13.764;2022-07-10T13:20:57;20.10;79.40
43949;DHT22;29429;51.074;13.764;2022-07-10T13:23:29;20.10;78.50
43949;DHT22;29429;51.074;13.764;2022-07-10T13:25:57;20.20;77.70
43949;DHT22;29429;51.074;13.764;2022-07-10T13:28:30;20.20;78.60
43949;DHT22;29429;51.074;13.764;2022-07-10T13:30:57;20.30;79.40
43949;DHT22;29429;51.074;13.764;2022-07-10T13:33:24;20.30;77.30
43949;DHT22;29429;51.074;13.764;2022-07-10T13:35:51;20.20;78.70
43949;DHT22;29429;51.074;13.764;2022-07-10T13:38:19;20.10;77.40
43949;DHT22;29429;51.074;13.764;2022-07-10T13:40:47;20.10;78.10
43949;DHT22;29429;51.074;13.764;2022-07-10T13:43:14;20.00;77.00
43949;DHT22;29429;51.074;13.764;2022-07-10T13:45:43;19.70;76.80
43949;DHT22;29429;51.074;13.764;2022-07-10T13:48:11;19.60;77.90
43949;DHT22;29429;51.074;13.764;2022-07-10T13:50:40;19.70;77.70
43949;DHT22;29429;51.074;13.764;2022-07-10T13:53:09;19.30;76.60
43949;DHT22;29429;51.074;13.764;2022-07-10T13:55:37;19.40;76.70
43949;DHT22;29429;51.074;13.764;2022-07-10T13:58:05;19.40;77.00
43949;DHT22;29429;51.074;13.764;2022-07-10T14:00:32;19.20;77.30
43949;DHT22;29429;51.074;13.764;2022-07-10T14:02:59;19.00;78.40
43949;DHT22;29429;51.074;13.764;2022-07-10T14:05:27;18.80;79.10
43949;DHT22;29429;51.074;13.764;2022-07-10T14:07:54;18.80;79.30
43949;DHT22;29429;51.074;13.764;2022-07-10T14:10:22;18.50;80.00
43949;DHT22;29429;51.074;13.764;2022-07-10T14:12:49;18.50;80.60
43949;DHT22;29429;51.074;13.764;2022-07-10T14:15:19;18.50;78.90
43949;DHT22;29429;51.074;13.764;2022-07-10T14:17:46;18.60;78.90
43949;DHT22;29429;51.074;13.764;2022-07-10T14:20:13;18.80;78.90
43949;DHT22;29429;51.074;13.764;2022-07-10T14:22:40;19.10;78.70
43949;DHT22;29429;51.074;13.764;2022-07-10T14:25:08;19.30;77.80
43949;DHT22;29429;51.074;13.764;2022-07-10T14:27:37;19.50;77.30
43949;DHT22;29429;51.074;13.764;2022-07-10T14:30:05;19.70;78.80
43949;DHT22;29429;51.074;13.764;2022-07-10T14:32:33;19.80;78.80
43949;DHT22;29429;51.074;13.764;2022-07-10T14:35:00;19.80;80.20
43949;DHT22;29429;51.074;13.764;2022-07-10T14:37:26;19.90;80.80
43949;DHT22;29429;51.074;13.764;2022-07-10T14:39:53;19.90;79.50
43949;DHT22;29429;51.074;13.764;2022-07-10T14:42:20;19.80;79.10
43949;DHT22;29429;51.074;13.764;2022-07-10T14:44:48;19.70;78.60
43949;DHT22;29429;51.074;13.764;2022-07-10T14:47:14;19.50;78.00
43949;DHT22;29429;51.074;13.764;2022-07-10T14:49:42;19.40;78.60
43949;DHT22;29429;51.074;13.764;2022-07-10T14:52:08;19.20;79.30
43949;DHT22;29429;51.074;13.764;2022-07-10T14:54:35;19.00;79.60
43949;DHT22;29429;51.074;13.764;2022-07-10T14:57:03;18.90;79.90
43949;DHT22;29429;51.074;13.764;2022-07-10T14:59:30;18.90;79.60
43949;DHT22;29429;51.074;13.764;2022-07-10T15:01:57;18.90;79.60
43949;DHT22;29429;51.074;13.764;2022-07-10T15:04:24;19.00;79.60
43949;DHT22;29429;51.074;13.764;2022-07-10T15:06:51;19.20;78.30
43949;DHT22;29429;51.074;13.764;2022-07-10T15:09:18;19.30;78.70
43949;DHT22;29429;51.074;13.764;2022-07-10T15:11:45;19.60;78.60
43949;DHT22;29429;51.074;13.764;2022-07-10T15:14:12;19.70;76.30
43949;DHT22;29429;51.074;13.764;2022-07-10T15:16:39;19.70;76.00
43949;DHT22;29429;51.074;13.764;2022-07-10T15:19:06;19.60;76.50
43949;DHT22;29429;51.074;13.764;2022-07-10T15:21:36;19.50;77.60
43949;DHT22;29429;51.074;13.764;2022-07-10T15:24:04;19.40;77.90
43949;DHT22;29429;51.074;13.764;2022-07-10T15:26:31;19.30;77.40
43949;DHT22;29429;51.074;13.764;2022-07-10T15:28:58;19.20;78.30
43949;DHT22;29429;51.074;13.764;2022-07-10T15:31:26;19.00;78.50
43949;DHT22;29429;51.074;13.764;2022-07-10T15:33:53;19.00;79.70
43949;DHT22;29429;51.074;13.764;2022-07-10T15:36:21;19.10;79.00
43949;DHT22;29429;51.074;13.764;2022-07-10T15:38:48;19.30;78.40
43949;DHT22;29429;51.074;13.764;2022-07-10T15:41:16;19.40;78.30
43949;DHT22;29429;51.074;13.764;2022-07-10T15:43:42;19.50;77.20
43949;DHT22;29429;51.074;13.764;2022-07-10T15:46:11;19.60;77.50
43949;DHT22;29429;51.074;13.764;2022-07-10T15:48:41;19.50;76.80
43949;DHT22;29429;51.074;13.764;2022-07-10T15:51:09;19.40;77.30
43949;DHT22;29429;51.074;13.764;2022-07-10T15:53:36;19.40;77.90